• Join FlightAware (Why Join?)
  • Login
  • US Flag 
Gobble Gobble! 
12:33PM EST


 

Airport Tracker/Info


-or-


 

Live Flight TrackerFlight Track Log ✈ FLG3862 ✈ 23-May-2013 ✈ KDTW - KBTV

Flight Track Log - Related Links

Times and Time Zones

All times are in EDT time to prevent confusion due to time zone crossing. See the FLG3862 flight status page for this flight to view local times or setup timezone preferences in your user account.

Time Position Orientation Groundspeed Altitude Reporting Facility
EDT Latitude Longitude Course Direction KTS MPH feet Rate Location/Type
10:50AM 42.2333 -83.3317 90° East 164 189 1,200  Level Cleveland Center
10:51AM 42.2844 -83.2861 33° Northeast 214 246 3,400 1,980 Climbing Cleveland Center
10:52AM 42.2892 -82.8876 75° East  Level FlightAware Approximate
10:53AM 42.3184 -82.7332 82° East  Level FlightAware Approximate
10:53AM 42.4103 -83.1706 34° Northeast 300 345 7,700  Level Cleveland Center
10:54AM 42.3353 -82.5755 71° East  Level FlightAware Approximate
10:54AM 42.4211 -83.0556 83° East 305 351 10,000  Level Cleveland Center
10:55AM 42.3667 -82.4260 90° East  Level FlightAware Approximate
10:55AM 42.3947 -82.9281 106° East 320 368 11,800  Level Cleveland Center
10:56AM 42.3658 -82.7975 107° East 341 392 13,000 1,380 Climbing Cleveland Center
10:57AM 42.3394 -82.6564 104° East 364 419 14,600 1,800 Climbing Cleveland Center
10:58AM 42.3567 -82.5078 81° East 387 445 16,700 1,980 Climbing Cleveland Center
10:59AM 42.3631 -82.3647 86° East 381 438 18,600 1,440 Climbing Cleveland Center
11:00AM 42.3569 -82.2186 93° East 386 444 19,600 960 Climbing Cleveland Center
11:01AM 42.3506 -82.0667 93° East 392 451 20,600 960 Climbing Cleveland Center
11:02AM 42.3461 -81.9092 92° East 407 468 21,600 960 Climbing Cleveland Center
11:03AM 42.3375 -81.7517 94° East 419 482 22,600 960 Climbing Cleveland Center
11:04AM 42.3308 -81.5858 93° East 424 488 23,600 960 Climbing Cleveland Center
11:05AM 42.3236 -81.4228 93° East 424 488 24,600 780 Climbing Cleveland Center
11:06AM 42.3164 -81.2597 93° East 424 488 25,200 600 Climbing Cleveland Center
11:07AM 42.3069 -81.0942 94° East 430 495 25,800 540 Climbing Cleveland Center
11:08AM 42.2972 -80.9369 95° East 447 514 26,300 540 Climbing Cleveland Center
11:09AM 42.2892 -80.7683 94° East 453 521 26,900 600 Climbing Cleveland Center
11:10AM 42.2808 -80.5944 94° East 463 533 27,500 600 Climbing Cleveland Center
11:11AM 42.2706 -80.4233 95° East 463 533 28,200 600 Climbing Cleveland Center
11:12AM 42.2617 -80.2550 94° East 458 527 28,800 540 Climbing Cleveland Center
11:13AM 42.2819 -80.0669 82° East 453 521 29,300 540 Climbing Cleveland Center
11:14AM 42.3269 -79.8978 70° East 462 532 29,900 540 Climbing Cleveland Center
11:15AM 42.3694 -79.7261 71° East 469 540 30,400 480 Climbing Cleveland Center
11:16AM 42.4097 -79.5594 72° East 474 545 30,900 300 Climbing Cleveland Center
11:17AM 42.4497 -79.3844 73° East 469 540 31,000  Climbing Cleveland Center
11:18AM 42.4897 -79.2289 71° East 475 547 31,000  Level Cleveland Center
11:19AM 42.5333 -79.0503 72° East 486 559 31,000  Level Cleveland Center
11:20AM 42.5747 -78.8689 73° East 491 565 31,000  Level Cleveland Center
11:21AM 42.6178 -78.6872 72° East 491 565 31,000  Level Cleveland Center
11:22AM 42.6583 -78.5081 73° East 496 571 31,000  Level Cleveland Center
11:23AM 42.7008 -78.3231 73° East 502 578 31,000  Level Cleveland Center
11:24AM 42.7428 -78.1378 73° East 502 578 31,000  Level Cleveland Center
11:25AM 42.7883 -77.9350 73° East 502 578 31,000  Level Cleveland Center
11:26AM 42.8319 -77.7492 72° East 502 578 31,000  Level Cleveland Center
11:27AM 42.8708 -77.5631 74° East 502 578 31,000  Level Cleveland Center
11:28AM 42.9161 -77.3794 71° East 502 578 31,000  Level Cleveland Center
11:30AM 42.9894 -77.0789 71° East 494 568 31,000  Level Boston Center
11:31AM 43.0325 -76.8919 72° East 494 568 31,000  Level Boston Center
11:32AM 43.0792 -76.7047 71° East 499 574 31,000 -60 Level Boston Center
11:33AM 43.1186 -76.5422 72° East 504 580 30,900  Descending Boston Center
11:34AM 43.1628 -76.3544 72° East 504 580 31,000  Climbing Boston Center
11:35AM 43.2064 -76.1692 72° East 504 580 30,900 -600 Descending Boston Center
11:36AM 43.2481 -75.9778 73° East 510 587 29,900 -1,020 Descending Boston Center
11:37AM 43.2933 -75.7864 72° East 510 587 28,900 -960 Descending Boston Center
11:38AM 43.3364 -75.5975 73° East 510 587 27,900 -1,020 Descending Boston Center
11:39AM 43.3947 -75.3575 71° East 504 580 26,700 -960 Descending Boston Center
11:40AM 43.4658 -75.1778 61° Northeast 515 593 26,000 -360 Descending Boston Center
11:41AM 43.5469 -75.0125 56° Northeast 515 593 26,000 -180 Level Boston Center
11:42AM 43.6317 -74.8525 54° Northeast 515 593 25,700 -840 Descending Boston Center
11:43AM 43.7142 -74.6836 56° Northeast 522 601 24,400 -1,260 Descending Boston Center
11:44AM 43.7986 -74.5197 54° Northeast 527 606 23,200 -1,200 Descending Boston Center
11:45AM 43.8786 -74.3614 55° Northeast 516 594 22,000 -1,560 Descending Boston Center
11:46AM 43.9561 -74.2050 55° Northeast 501 577 20,100 -2,040 Descending Boston Center
11:47AM 44.0333 -74.0544 54° Northeast 491 565 18,000 -2,100 Descending Boston Center
11:48AM 44.1061 -73.9058 56° Northeast 474 545 16,000 -2,040 Descending Boston Center
11:49AM 44.1786 -73.7631 55° Northeast 461 531 14,000 -1,860 Descending Boston Center
11:50AM 44.2464 -73.6631 47° Northeast 443 510 12,300 -1,800 Descending Boston Center
11:51AM 44.3394 -73.5256 47° Northeast 416 479 10,500 -1,800 Descending Boston Center
11:52AM 44.4214 -73.4689 26° Northeast 346 398 8,800 -2,100 Descending Boston Center
11:53AM 44.5006 -73.4586 North 317 365 6,300 -2,100 Descending Boston Center
11:54AM 44.5800 -73.4397 10° North 299 344 4,600 -1,200 Descending Boston Center
11:55AM 44.6450 -73.3942 26° Northeast 250 288 4,000 -360 Descending Boston Center
11:56AM 44.6183 -73.3353 122° Southeast 143 165 3,900 -120 Descending Boston Center